Charleston, WV

9:53 PM EST on February 07, 2016 (GMT -0500)
Joes Creek | | Change Station
CLOSE
Current Station
Personal Weather Station
Location: Comfort, WV
Elevation: 784 ft
Nearby Weather Stations

Elev 784 ft 38.12 °N, 81.59 °W | Updated 2 minutes ago

Scattered Clouds
Scattered Clouds
31.5 °F
Feels Like 32 °F
N
0.0
Wind Variable Wind from ENE
Gusts 0.0 mph

Today
High -- | Low -- °F
--% Chance of Precip.
Yesterday
High -- | Low -- °F
Precip. -- in
Pressure 29.91 in
Visibility 10.0 miles
Clouds Scattered Clouds 16000 ft
Windchill 32 °F
Dew Point 29 °F
Humidity 90%
Rainfall 0.00 in
Snow Depth Not available.
7:26 AM 5:55 PM
Waning Crescent, 0% visible
METAR KCRW 080154Z 00000KT 10SM SCT160 04/M04 A2989 RMK AO2 SLP127 T00441044
Pressure 29.91 in
Visibility 10.0 miles
Clouds Scattered Clouds 16000 ft
Windchill 32 °F
Dew Point 29 °F
Humidity 90%
Rainfall 0.00 in
Snow Depth Not available.
7:26 AM 5:55 PM
Waning Crescent, 0% visible
METAR KCRW 080154Z 00000KT 10SM SCT160 04/M04 A2989 RMK AO2 SLP127 T00441044

10-Day Weather Forecast

Almanac

Astronomy

Feb. 07, 2016 Rise Set
Actual Time
Civil Twilight
Nautical Twilight
Astronomical Twilight
Moon
Length of Visible Light
Length of Day
Tomorrow will be .
, % of the Moon is Illuminated

Today's Extremes

State Highs State Lows

Community

WunderPhotos

Upload Photos

1,891,373 photos uploaded!

WunderBlog® & News

Nearby

Air Quality

  Air Quality AQ Index Pollutant
Not available.

Snow Depth

Station Depth Elevation

Earthquake Activity

City Distance Mag. Time & Date
Minimum magnitude displayed is 2.5.

Coastal Water Temperatures

Place Temperature

Stations

Nearby Weather Stations

Station Location Temp. Windchill Dew Point Humidity Wind Precip. Elev Updated Type
                   

Watches & Warnings

There are currently no watches in effect.